This is the latest recevied weather packets stored in our database for station/object OM2RC-6. If no packets are shown the sender has not sent any weather packets the latest 10 day(s).
| Time | Temp. | Humidity | Pressure | Rain* | Wind** | Luminosity | Snow |
|---|---|---|---|---|---|---|---|
| 1777979714 | 23.33° C | 41% | 1009.6 hPa | - | - | - | - |
| 1777979413 | 23.33° C | 44% | 1009.4 hPa | - | - | - | - |
| 1777979112 | 23.33° C | 45% | 1009.6 hPa | - | - | - | - |
| 1777978808 | 23.89° C | 44% | 1009.6 hPa | - | - | - | - |
| 1777978507 | 23.33° C | 44% | 1009.5 hPa | - | - | - | - |
| 1777978205 | 23.33° C | 45% | 1009.5 hPa | - | - | - | - |
| 1777977905 | 22.78° C | 49% | 1009.6 hPa | - | - | - | - |
| 1777977603 | 22.78° C | 47% | 1009.6 hPa | - | - | - | - |
| 1777977302 | 23.33° C | 47% | 1009.8 hPa | - | - | - | - |
| 1777977001 | 22.22° C | 50% | 1009.7 hPa | - | - | - | - |
| 1777976699 | 21.67° C | 50% | 1009.8 hPa | - | - | - | - |
| 1777976398 | 22.78° C | 47% | 1009.7 hPa | - | - | - | - |
| 1777976097 | 22.22° C | 49% | 1009.8 hPa | - | - | - | - |
| 1777975493 | 22.22° C | 53% | 1009.9 hPa | - | - | - | - |
| 1777975193 | 21.67° C | 53% | 1009.9 hPa | - | - | - | - |
| 1777974890 | 22.22° C | 53% | 1009.9 hPa | - | - | - | - |
| 1777974588 | 21.67° C | 53% | 1010 hPa | - | - | - | - |
| 1777974286 | 21.11° C | 55% | 1010.1 hPa | - | - | - | - |
| 1777973684 | 21.11° C | 56% | 1009.8 hPa | - | - | - | - |
| 1777973383 | 20.56° C | 57% | 1010.3 hPa | - | - | - | - |
| 1777973082 | 20° C | 60% | 1010.3 hPa | - | - | - | - |
| 1777972781 | 19.44° C | 61% | 1010.2 hPa | - | - | - | - |
| 1777972479 | 19.44° C | 61% | 1010.2 hPa | - | - | - | - |
| 1777972177 | 20° C | 59% | 1010.3 hPa | - | - | - | - |
| 1777971876 | 20° C | 59% | 1010.3 hPa | - | - | - | - |
* Rain since midnight (hover to see other rain measurements)
** Current wind speed in m/s (hover to see current wind gust speed)